sensor_id;sensor_type;location;lat;lon;timestamp;pressure;altitude;pressure_sealevel;temperature;humidity
20077;BME280;12348;42.710;23.378;2022-09-20T00:04:52;95214.31;;;10.42;100.00
20077;BME280;12348;42.710;23.378;2022-09-20T00:07:19;95212.19;;;10.39;100.00
20077;BME280;12348;42.710;23.378;2022-09-20T00:09:46;95215.81;;;10.24;100.00
20077;BME280;12348;42.710;23.378;2022-09-20T00:12:12;95212.34;;;10.18;100.00
20077;BME280;12348;42.710;23.378;2022-09-20T00:14:39;95224.03;;;10.09;100.00
20077;BME280;12348;42.710;23.378;2022-09-20T00:17:07;95221.13;;;10.00;100.00
20077;BME280;12348;42.710;23.378;2022-09-20T00:19:34;95228.94;;;10.02;100.00
20077;BME280;12348;42.710;23.378;2022-09-20T00:22:01;95221.38;;;10.04;100.00
20077;BME280;12348;42.710;23.378;2022-09-20T00:24:28;95217.41;;;9.96;100.00
20077;BME280;12348;42.710;23.378;2022-09-20T00:26:55;95209.78;;;9.79;100.00
20077;BME280;12348;42.710;23.378;2022-09-20T00:29:21;95202.81;;;9.73;100.00
20077;BME280;12348;42.710;23.378;2022-09-20T00:31:49;95212.78;;;9.73;100.00
20077;BME280;12348;42.710;23.378;2022-09-20T00:34:17;95210.94;;;9.68;100.00
20077;BME280;12348;42.710;23.378;2022-09-20T00:37:02;95202.06;;;9.67;100.00
20077;BME280;12348;42.710;23.378;2022-09-20T00:39:28;95200.50;;;9.61;100.00
20077;BME280;12348;42.710;23.378;2022-09-20T00:41:56;95210.47;;;9.56;100.00
20077;BME280;12348;42.710;23.378;2022-09-20T00:44:42;95212.72;;;9.49;100.00
20077;BME280;12348;42.710;23.378;2022-09-20T00:47:13;95213.28;;;9.40;100.00
20077;BME280;12348;42.710;23.378;2022-09-20T00:49:43;95211.69;;;9.39;100.00
20077;BME280;12348;42.710;23.378;2022-09-20T00:52:10;95221.38;;;9.35;100.00
20077;BME280;12348;42.710;23.378;2022-09-20T00:54:37;95217.09;;;9.34;100.00
20077;BME280;12348;42.710;23.378;2022-09-20T00:57:04;95225.13;;;9.39;100.00
20077;BME280;12348;42.710;23.378;2022-09-20T00:59:33;95216.56;;;9.37;100.00
20077;BME280;12348;42.710;23.378;2022-09-20T01:02:05;95207.94;;;9.35;100.00
20077;BME280;12348;42.710;23.378;2022-09-20T01:04:34;95210.34;;;9.37;100.00
20077;BME280;12348;42.710;23.378;2022-09-20T01:07:07;95221.34;;;9.40;100.00
20077;BME280;12348;42.710;23.378;2022-09-20T01:09:35;95218.41;;;9.42;100.00
20077;BME280;12348;42.710;23.378;2022-09-20T01:12:05;95207.91;;;9.40;100.00
20077;BME280;12348;42.710;23.378;2022-09-20T01:14:34;95194.72;;;9.44;100.00
20077;BME280;12348;42.710;23.378;2022-09-20T01:17:03;95210.59;;;9.40;100.00
20077;BME280;12348;42.710;23.378;2022-09-20T01:19:36;95213.78;;;9.47;100.00
20077;BME280;12348;42.710;23.378;2022-09-20T01:22:13;95218.09;;;9.43;100.00
20077;BME280;12348;42.710;23.378;2022-09-20T01:24:48;95209.72;;;9.50;100.00
20077;BME280;12348;42.710;23.378;2022-09-20T01:27:21;95204.41;;;9.45;100.00
20077;BME280;12348;42.710;23.378;2022-09-20T01:30:03;95208.69;;;9.41;100.00
20077;BME280;12348;42.710;23.378;2022-09-20T01:32:41;95214.38;;;9.39;100.00
20077;BME280;12348;42.710;23.378;2022-09-20T01:35:10;95208.00;;;9.30;100.00
20077;BME280;12348;42.710;23.378;2022-09-20T01:37:48;95199.22;;;9.14;100.00
20077;BME280;12348;42.710;23.378;2022-09-20T01:40:21;95209.78;;;9.01;100.00
20077;BME280;12348;42.710;23.378;2022-09-20T01:42:58;95200.94;;;8.95;100.00
20077;BME280;12348;42.710;23.378;2022-09-20T01:45:30;95203.91;;;8.93;100.00
20077;BME280;12348;42.710;23.378;2022-09-20T01:48:06;95209.00;;;8.95;100.00
20077;BME280;12348;42.710;23.378;2022-09-20T01:50:45;95211.22;;;8.83;100.00
20077;BME280;12348;42.710;23.378;2022-09-20T01:53:44;95209.88;;;8.85;100.00
20077;BME280;12348;42.710;23.378;2022-09-20T01:56:37;95216.88;;;8.76;100.00
20077;BME280;12348;42.710;23.378;2022-09-20T02:02:29;95216.38;;;8.74;100.00
20077;BME280;12348;42.710;23.378;2022-09-20T02:08:07;95205.38;;;8.65;100.00
20077;BME280;12348;42.710;23.378;2022-09-20T02:13:33;95195.22;;;8.57;100.00
20077;BME280;12348;42.710;23.378;2022-09-20T02:16:23;95186.66;;;8.50;100.00
20077;BME280;12348;42.710;23.378;2022-09-20T02:19:14;95191.53;;;8.43;100.00
20077;BME280;12348;42.710;23.378;2022-09-20T02:21:50;95195.28;;;8.37;100.00
20077;BME280;12348;42.710;23.378;2022-09-20T02:24:27;95191.25;;;8.34;100.00
20077;BME280;12348;42.710;23.378;2022-09-20T02:27:03;95195.03;;;8.33;100.00
20077;BME280;12348;42.710;23.378;2022-09-20T02:29:42;95188.31;;;8.31;100.00
20077;BME280;12348;42.710;23.378;2022-09-20T02:32:22;95182.97;;;8.31;100.00
20077;BME280;12348;42.710;23.378;2022-09-20T02:35:19;95193.97;;;8.24;100.00
20077;BME280;12348;42.710;23.378;2022-09-20T02:37:56;95191.84;;;8.16;100.00
20077;BME280;12348;42.710;23.378;2022-09-20T02:40:36;95193.44;;;8.17;100.00
20077;BME280;12348;42.710;23.378;2022-09-20T02:43:12;95204.72;;;8.14;100.00
20077;BME280;12348;42.710;23.378;2022-09-20T02:45:46;95203.13;;;8.13;100.00
20077;BME280;12348;42.710;23.378;2022-09-20T02:48:21;95207.69;;;8.12;100.00
20077;BME280;12348;42.710;23.378;2022-09-20T02:50:55;95209.53;;;8.17;100.00
20077;BME280;12348;42.710;23.378;2022-09-20T02:53:34;95208.50;;;8.18;100.00
20077;BME280;12348;42.710;23.378;2022-09-20T02:56:10;95207.91;;;8.21;100.00
20077;BME280;12348;42.710;23.378;2022-09-20T02:58:47;95212.47;;;8.20;100.00
20077;BME280;12348;42.710;23.378;2022-09-20T03:01:30;95214.09;;;8.21;100.00
20077;BME280;12348;42.710;23.378;2022-09-20T03:04:19;95218.38;;;8.17;100.00
20077;BME280;12348;42.710;23.378;2022-09-20T03:06:54;95215.19;;;8.10;100.00
20077;BME280;12348;42.710;23.378;2022-09-20T03:09:30;95214.38;;;8.10;100.00
20077;BME280;12348;42.710;23.378;2022-09-20T03:12:08;95209.59;;;8.07;100.00
20077;BME280;12348;42.710;23.378;2022-09-20T03:14:43;95215.47;;;8.09;100.00
20077;BME280;12348;42.710;23.378;2022-09-20T03:17:18;95212.81;;;8.04;100.00
20077;BME280;12348;42.710;23.378;2022-09-20T03:20:02;95213.59;;;7.99;100.00
20077;BME280;12348;42.710;23.378;2022-09-20T03:22:40;95219.22;;;8.02;100.00
20077;BME280;12348;42.710;23.378;2022-09-20T03:25:33;95217.63;;;8.01;100.00
20077;BME280;12348;42.710;23.378;2022-09-20T03:28:10;95221.91;;;8.02;100.00
20077;BME280;12348;42.710;23.378;2022-09-20T03:30:53;95222.97;;;8.01;100.00
20077;BME280;12348;42.710;23.378;2022-09-20T03:33:32;95221.91;;;8.02;100.00
20077;BME280;12348;42.710;23.378;2022-09-20T03:36:12;95232.63;;;8.02;100.00
20077;BME280;12348;42.710;23.378;2022-09-20T03:38:55;95234.00;;;8.00;100.00
20077;BME280;12348;42.710;23.378;2022-09-20T03:41:36;95229.97;;;8.08;100.00
20077;BME280;12348;42.710;23.378;2022-09-20T03:44:26;95236.38;;;8.01;100.00
20077;BME280;12348;42.710;23.378;2022-09-20T03:47:06;95230.78;;;8.03;100.00
20077;BME280;12348;42.710;23.378;2022-09-20T03:55:41;95236.41;;;7.91;100.00
20077;BME280;12348;42.710;23.378;2022-09-20T03:58:20;95232.66;;;7.87;100.00
20077;BME280;12348;42.710;23.378;2022-09-20T04:01:02;95244.44;;;7.91;100.00
20077;BME280;12348;42.710;23.378;2022-09-20T04:03:40;95251.97;;;7.89;100.00
20077;BME280;12348;42.710;23.378;2022-09-20T04:06:28;95240.16;;;7.95;100.00
20077;BME280;12348;42.710;23.378;2022-09-20T04:09:26;95240.16;;;8.00;100.00
20077;BME280;12348;42.710;23.378;2022-09-20T04:12:01;95242.59;;;7.92;100.00
20077;BME280;12348;42.710;23.378;2022-09-20T04:14:35;95249.53;;;7.88;100.00
20077;BME280;12348;42.710;23.378;2022-09-20T04:17:15;95248.47;;;7.94;100.00
20077;BME280;12348;42.710;23.378;2022-09-20T04:19:47;95245.22;;;8.12;100.00
20077;BME280;12348;42.710;23.378;2022-09-20T04:22:18;95262.38;;;8.21;100.00
20077;BME280;12348;42.710;23.378;2022-09-20T04:24:51;95268.50;;;8.58;100.00
20077;BME280;12348;42.710;23.378;2022-09-20T04:27:23;95264.00;;;9.52;100.00
20077;BME280;12348;42.710;23.378;2022-09-20T04:29:57;95263.66;;;10.32;100.00
20077;BME280;12348;42.710;23.378;2022-09-20T04:32:30;95262.34;;;10.54;100.00
20077;BME280;12348;42.710;23.378;2022-09-20T04:35:03;95272.91;;;10.74;100.00
20077;BME280;12348;42.710;23.378;2022-09-20T04:37:49;95263.47;;;11.38;100.00
20077;BME280;12348;42.710;23.378;2022-09-20T04:40:24;95270.81;;;12.55;100.00
20077;BME280;12348;42.710;23.378;2022-09-20T04:43:21;95274.56;;;13.64;99.33
20077;BME280;12348;42.710;23.378;2022-09-20T04:46:24;95278.69;;;13.84;93.70
20077;BME280;12348;42.710;23.378;2022-09-20T04:49:15;95277.72;;;14.78;83.78
20077;BME280;12348;42.710;23.378;2022-09-20T04:52:13;95286.81;;;15.80;76.81
20077;BME280;12348;42.710;23.378;2022-09-20T05:04:42;95277.69;;;19.87;50.73
20077;BME280;12348;42.710;23.378;2022-09-20T05:07:42;95281.38;;;20.35;48.16
20077;BME280;12348;42.710;23.378;2022-09-20T05:10:32;95280.16;;;20.61;46.39
20077;BME280;12348;42.710;23.378;2022-09-20T05:13:13;95285.16;;;20.02;48.66
20077;BME280;12348;42.710;23.378;2022-09-20T05:15:51;95287.13;;;19.53;48.76
20077;BME280;12348;42.710;23.378;2022-09-20T05:21:32;95295.13;;;19.70;49.70
20077;BME280;12348;42.710;23.378;2022-09-20T05:24:15;95289.53;;;19.79;49.37
20077;BME280;12348;42.710;23.378;2022-09-20T05:26:57;95291.19;;;21.08;46.78
20077;BME280;12348;42.710;23.378;2022-09-20T05:29:32;95295.34;;;21.18;44.20
20077;BME280;12348;42.710;23.378;2022-09-20T05:32:07;95291.09;;;20.32;46.86
20077;BME280;12348;42.710;23.378;2022-09-20T05:34:44;95297.13;;;20.50;46.31
20077;BME280;12348;42.710;23.378;2022-09-20T05:37:24;95297.31;;;21.33;44.24
20077;BME280;12348;42.710;23.378;2022-09-20T05:40:00;95289.97;;;21.88;43.64
20077;BME280;12348;42.710;23.378;2022-09-20T05:42:36;95293.66;;;23.35;40.48
20077;BME280;12348;42.710;23.378;2022-09-20T05:45:18;95289.28;;;22.46;41.42
20077;BME280;12348;42.710;23.378;2022-09-20T05:47:51;95282.78;;;22.77;40.43
20077;BME280;12348;42.710;23.378;2022-09-20T05:50:32;95285.50;;;21.80;42.06
20077;BME280;12348;42.710;23.378;2022-09-20T05:53:27;95286.19;;;21.77;42.65
20077;BME280;12348;42.710;23.378;2022-09-20T05:56:04;95295.88;;;21.71;42.33
20077;BME280;12348;42.710;23.378;2022-09-20T05:58:51;95286.66;;;22.53;41.48
20077;BME280;12348;42.710;23.378;2022-09-20T06:01:25;95297.56;;;23.11;39.70
20077;BME280;12348;42.710;23.378;2022-09-20T06:03:55;95298.13;;;23.20;39.92
20077;BME280;12348;42.710;23.378;2022-09-20T06:06:28;95293.63;;;23.81;38.84
20077;BME280;12348;42.710;23.378;2022-09-20T06:09:14;95298.81;;;23.86;38.61
20077;BME280;12348;42.710;23.378;2022-09-20T06:12:14;95294.22;;;22.98;39.80
20077;BME280;12348;42.710;23.378;2022-09-20T06:14:48;95301.75;;;23.74;38.58
20077;BME280;12348;42.710;23.378;2022-09-20T06:17:24;95301.88;;;22.89;39.21
20077;BME280;12348;42.710;23.378;2022-09-20T06:20:05;95293.50;;;22.82;39.98
20077;BME280;12348;42.710;23.378;2022-09-20T06:22:39;95288.81;;;22.24;41.07
20077;BME280;12348;42.710;23.378;2022-09-20T06:25:15;95289.94;;;22.04;41.93
20077;BME280;12348;42.710;23.378;2022-09-20T06:27:46;95294.94;;;21.83;41.44
20077;BME280;12348;42.710;23.378;2022-09-20T06:30:17;95293.03;;;21.04;43.01
20077;BME280;12348;42.710;23.378;2022-09-20T06:32:55;95298.66;;;22.64;40.25
20077;BME280;12348;42.710;23.378;2022-09-20T06:35:27;95292.31;;;23.26;39.27
20077;BME280;12348;42.710;23.378;2022-09-20T06:38:10;95296.69;;;24.03;37.47
20077;BME280;12348;42.710;23.378;2022-09-20T06:40:57;95300.44;;;23.18;38.95
20077;BME280;12348;42.710;23.378;2022-09-20T06:43:41;95297.84;;;24.02;38.82
20077;BME280;12348;42.710;23.378;2022-09-20T06:46:13;95296.53;;;24.86;36.33
20077;BME280;12348;42.710;23.378;2022-09-20T06:48:40;95292.41;;;24.35;36.84
20077;BME280;12348;42.710;23.378;2022-09-20T06:51:07;95289.69;;;25.47;34.75
20077;BME280;12348;42.710;23.378;2022-09-20T06:53:38;95286.25;;;25.17;35.79
20077;BME280;12348;42.710;23.378;2022-09-20T06:56:07;95301.59;;;25.58;35.04
20077;BME280;12348;42.710;23.378;2022-09-20T06:58:34;95300.28;;;26.66;33.57
20077;BME280;12348;42.710;23.378;2022-09-20T07:01:01;95292.78;;;26.63;32.43
20077;BME280;12348;42.710;23.378;2022-09-20T07:03:28;95304.59;;;25.43;33.98
20077;BME280;12348;42.710;23.378;2022-09-20T07:05:56;95299.94;;;26.02;33.42
20077;BME280;12348;42.710;23.378;2022-09-20T07:08:24;95308.53;;;24.07;36.17
20077;BME280;12348;42.710;23.378;2022-09-20T07:10:52;95310.00;;;25.28;35.60
20077;BME280;12348;42.710;23.378;2022-09-20T07:13:20;95310.50;;;26.58;33.09
20077;BME280;12348;42.710;23.378;2022-09-20T07:15:47;95307.94;;;26.21;33.14
20077;BME280;12348;42.710;23.378;2022-09-20T07:18:14;95310.44;;;24.97;34.30
20077;BME280;12348;42.710;23.378;2022-09-20T07:20:40;95309.91;;;25.62;33.51
20077;BME280;12348;42.710;23.378;2022-09-20T07:23:09;95318.13;;;24.47;35.53
20077;BME280;12348;42.710;23.378;2022-09-20T07:25:35;95311.91;;;25.24;34.45
20077;BME280;12348;42.710;23.378;2022-09-20T07:28:04;95309.38;;;26.63;31.88
20077;BME280;12348;42.710;23.378;2022-09-20T07:30:30;95311.56;;;27.84;30.18
20077;BME280;12348;42.710;23.378;2022-09-20T07:32:57;95313.53;;;27.48;30.95
20077;BME280;12348;42.710;23.378;2022-09-20T07:35:24;95308.81;;;27.95;30.48
20077;BME280;12348;42.710;23.378;2022-09-20T07:37:55;95308.31;;;28.54;30.22
20077;BME280;12348;42.710;23.378;2022-09-20T07:40:22;95305.63;;;27.53;30.92
20077;BME280;12348;42.710;23.378;2022-09-20T07:42:50;95300.94;;;26.38;31.98
20077;BME280;12348;42.710;23.378;2022-09-20T07:45:18;95301.94;;;26.89;31.51
20077;BME280;12348;42.710;23.378;2022-09-20T07:47:44;95302.84;;;27.46;30.28
20077;BME280;12348;42.710;23.378;2022-09-20T07:50:11;95300.66;;;25.92;32.30
20077;BME280;12348;42.710;23.378;2022-09-20T07:52:38;95299.34;;;26.33;31.85
20077;BME280;12348;42.710;23.378;2022-09-20T07:55:06;95300.53;;;25.26;34.18
20077;BME280;12348;42.710;23.378;2022-09-20T07:57:34;95294.09;;;26.18;31.88
20077;BME280;12348;42.710;23.378;2022-09-20T08:00:05;95298.50;;;27.38;30.13
20077;BME280;12348;42.710;23.378;2022-09-20T08:02:33;95293.66;;;24.41;35.10
20077;BME280;12348;42.710;23.378;2022-09-20T08:05:00;95293.34;;;26.21;32.73
20077;BME280;12348;42.710;23.378;2022-09-20T08:07:28;95289.50;;;26.40;32.16
20077;BME280;12348;42.710;23.378;2022-09-20T08:09:54;95294.22;;;25.73;33.80
20077;BME280;12348;42.710;23.378;2022-09-20T08:12:21;95289.53;;;24.55;34.31
20077;BME280;12348;42.710;23.378;2022-09-20T08:14:48;95289.16;;;21.68;38.19
20077;BME280;12348;42.710;23.378;2022-09-20T08:17:15;95296.34;;;21.92;39.41
20077;BME280;12348;42.710;23.378;2022-09-20T08:19:43;95293.34;;;20.43;40.82
20077;BME280;12348;42.710;23.378;2022-09-20T08:22:10;95304.28;;;21.15;40.55
20077;BME280;12348;42.710;23.378;2022-09-20T08:24:37;95302.97;;;23.04;38.14
20077;BME280;12348;42.710;23.378;2022-09-20T08:27:04;95299.19;;;23.62;35.90
20077;BME280;12348;42.710;23.378;2022-09-20T08:29:31;95305.31;;;23.52;34.63
20077;BME280;12348;42.710;23.378;2022-09-20T08:31:57;95294.72;;;21.72;38.09
20077;BME280;12348;42.710;23.378;2022-09-20T08:34:26;95292.19;;;20.16;40.81
20077;BME280;12348;42.710;23.378;2022-09-20T08:36:54;95295.22;;;19.61;42.66
20077;BME280;12348;42.710;23.378;2022-09-20T08:39:21;95293.50;;;18.96;44.03
20077;BME280;12348;42.710;23.378;2022-09-20T08:41:52;95295.97;;;18.76;44.16
20077;BME280;12348;42.710;23.378;2022-09-20T08:44:23;95277.47;;;19.80;43.27
20077;BME280;12348;42.710;23.378;2022-09-20T08:46:58;95280.22;;;19.43;42.66
20077;BME280;12348;42.710;23.378;2022-09-20T08:49:28;95273.38;;;20.42;41.45
20077;BME280;12348;42.710;23.378;2022-09-20T08:51:58;95268.59;;;21.11;40.04
20077;BME280;12348;42.710;23.378;2022-09-20T08:54:29;95274.19;;;22.98;37.93
20077;BME280;12348;42.710;23.378;2022-09-20T08:56:57;95273.84;;;23.99;33.99
20077;BME280;12348;42.710;23.378;2022-09-20T08:59:27;95266.31;;;23.95;34.07
20077;BME280;12348;42.710;23.378;2022-09-20T09:01:55;95265.34;;;25.60;31.19
20077;BME280;12348;42.710;23.378;2022-09-20T09:04:27;95259.63;;;26.63;29.55
20077;BME280;12348;42.710;23.378;2022-09-20T09:06:58;95257.25;;;26.65;29.27
20077;BME280;12348;42.710;23.378;2022-09-20T09:09:27;95249.06;;;27.01;29.93
20077;BME280;12348;42.710;23.378;2022-09-20T09:11:55;95242.72;;;26.90;29.32
20077;BME280;12348;42.710;23.378;2022-09-20T09:14:25;95238.31;;;25.80;30.38
20077;BME280;12348;42.710;23.378;2022-09-20T09:17:11;95238.66;;;24.45;32.35
20077;BME280;12348;42.710;23.378;2022-09-20T09:19:43;95238.72;;;22.89;34.58
20077;BME280;12348;42.710;23.378;2022-09-20T09:22:17;95235.13;;;22.66;33.67
20077;BME280;12348;42.710;23.378;2022-09-20T09:24:44;95232.19;;;21.97;34.49
20077;BME280;12348;42.710;23.378;2022-09-20T09:27:14;95236.44;;;21.75;35.33
20077;BME280;12348;42.710;23.378;2022-09-20T09:29:48;95228.38;;;22.83;33.73
20077;BME280;12348;42.710;23.378;2022-09-20T09:32:22;95221.38;;;23.31;33.30
20077;BME280;12348;42.710;23.378;2022-09-20T09:34:50;95226.53;;;23.89;32.46
20077;BME280;12348;42.710;23.378;2022-09-20T09:37:26;95217.53;;;23.92;32.28
20077;BME280;12348;42.710;23.378;2022-09-20T09:40:12;95206.28;;;24.05;32.03
20077;BME280;12348;42.710;23.378;2022-09-20T09:42:47;95204.34;;;23.48;33.31
20077;BME280;12348;42.710;23.378;2022-09-20T09:45:25;95208.72;;;21.61;35.34
20077;BME280;12348;42.710;23.378;2022-09-20T09:47:53;95206.88;;;21.49;35.79
20077;BME280;12348;42.710;23.378;2022-09-20T09:50:25;95209.16;;;20.96;36.90
20077;BME280;12348;42.710;23.378;2022-09-20T09:53:02;95219.09;;;20.72;36.78
20077;BME280;12348;42.710;23.378;2022-09-20T09:55:43;95216.34;;;22.25;34.56
20077;BME280;12348;42.710;23.378;2022-09-20T09:58:23;95215.19;;;23.64;31.69
20077;BME280;12348;42.710;23.378;2022-09-20T10:00:53;95204.03;;;24.10;32.36
20077;BME280;12348;42.710;23.378;2022-09-20T10:03:31;95199.66;;;24.77;30.33
20077;BME280;12348;42.710;23.378;2022-09-20T10:06:12;95203.00;;;26.07;29.83
20077;BME280;12348;42.710;23.378;2022-09-20T10:08:51;95207.16;;;26.81;28.30
20077;BME280;12348;42.710;23.378;2022-09-20T10:11:29;95204.41;;;26.95;27.89
20077;BME280;12348;42.710;23.378;2022-09-20T10:14:14;95197.31;;;26.91;28.39
20077;BME280;12348;42.710;23.378;2022-09-20T10:16:58;95186.94;;;26.38;28.71
20077;BME280;12348;42.710;23.378;2022-09-20T10:19:40;95193.31;;;25.76;29.64
20077;BME280;12348;42.710;23.378;2022-09-20T10:22:14;95200.22;;;23.09;33.05
20077;BME280;12348;42.710;23.378;2022-09-20T10:24:51;95201.34;;;22.19;34.54
20077;BME280;12348;42.710;23.378;2022-09-20T10:27:32;95202.06;;;21.11;36.24
20077;BME280;12348;42.710;23.378;2022-09-20T10:30:07;95198.13;;;21.43;36.26
20077;BME280;12348;42.710;23.378;2022-09-20T10:32:50;95203.97;;;22.78;34.50
20077;BME280;12348;42.710;23.378;2022-09-20T10:35:49;95195.34;;;23.78;32.55
20077;BME280;12348;42.710;23.378;2022-09-20T10:38:22;95191.72;;;21.71;34.80
20077;BME280;12348;42.710;23.378;2022-09-20T10:41:06;95188.84;;;20.81;36.67
20077;BME280;12348;42.710;23.378;2022-09-20T10:44:11;95189.63;;;19.53;40.06
20077;BME280;12348;42.710;23.378;2022-09-20T10:46:48;95189.94;;;19.52;39.80
20077;BME280;12348;42.710;23.378;2022-09-20T10:49:24;95186.53;;;20.83;38.32
20077;BME280;12348;42.710;23.378;2022-09-20T10:52:15;95185.06;;;21.72;35.94
20077;BME280;12348;42.710;23.378;2022-09-20T10:55:12;95182.47;;;22.18;35.21
20077;BME280;12348;42.710;23.378;2022-09-20T10:58:05;95188.72;;;22.15;34.86
20077;BME280;12348;42.710;23.378;2022-09-20T11:00:43;95183.41;;;22.25;34.55
20077;BME280;12348;42.710;23.378;2022-09-20T11:03:23;95182.31;;;22.49;34.11
20077;BME280;12348;42.710;23.378;2022-09-20T11:06:08;95183.22;;;22.80;33.95
20077;BME280;12348;42.710;23.378;2022-09-20T11:08:39;95177.13;;;21.86;35.10
20077;BME280;12348;42.710;23.378;2022-09-20T11:11:10;95175.88;;;22.19;34.49
20077;BME280;12348;42.710;23.378;2022-09-20T11:13:45;95173.66;;;22.28;33.97
20077;BME280;12348;42.710;23.378;2022-09-20T11:16:17;95171.97;;;22.43;34.35
20077;BME280;12348;42.710;23.378;2022-09-20T11:18:51;95165.84;;;22.95;33.02
20077;BME280;12348;42.710;23.378;2022-09-20T11:21:26;95154.19;;;21.56;34.62
20077;BME280;12348;42.710;23.378;2022-09-20T11:23:59;95165.69;;;20.94;35.62
20077;BME280;12348;42.710;23.378;2022-09-20T11:26:33;95164.00;;;20.90;36.15
20077;BME280;12348;42.710;23.378;2022-09-20T11:29:10;95159.78;;;21.43;35.27
20077;BME280;12348;42.710;23.378;2022-09-20T11:31:42;95156.34;;;21.30;35.10
20077;BME280;12348;42.710;23.378;2022-09-20T11:34:14;95167.31;;;21.30;34.30
20077;BME280;12348;42.710;23.378;2022-09-20T11:36:49;95163.06;;;21.68;34.32
20077;BME280;12348;42.710;23.378;2022-09-20T11:39:22;95161.00;;;21.81;34.04
20077;BME280;12348;42.710;23.378;2022-09-20T11:41:54;95157.00;;;21.59;34.57
20077;BME280;12348;42.710;23.378;2022-09-20T11:44:23;95149.56;;;21.60;33.59
20077;BME280;12348;42.710;23.378;2022-09-20T11:46:54;95155.13;;;21.83;33.67
20077;BME280;12348;42.710;23.378;2022-09-20T11:49:27;95153.75;;;21.53;34.25
20077;BME280;12348;42.710;23.378;2022-09-20T11:52:15;95146.47;;;21.26;34.36
20077;BME280;12348;42.710;23.378;2022-09-20T11:55:00;95138.34;;;20.63;35.08
20077;BME280;12348;42.710;23.378;2022-09-20T11:57:31;95140.00;;;20.99;35.22
20077;BME280;12348;42.710;23.378;2022-09-20T12:00:06;95140.47;;;21.20;34.79
20077;BME280;12348;42.710;23.378;2022-09-20T12:02:36;95132.81;;;20.94;35.64
20077;BME280;12348;42.710;23.378;2022-09-20T12:05:22;95137.63;;;21.17;36.02
20077;BME280;12348;42.710;23.378;2022-09-20T12:07:52;95140.72;;;20.64;35.31
20077;BME280;12348;42.710;23.378;2022-09-20T12:10:22;95133.78;;;21.02;35.83
20077;BME280;12348;42.710;23.378;2022-09-20T12:12:55;95128.09;;;20.60;37.22
20077;BME280;12348;42.710;23.378;2022-09-20T12:15:27;95134.88;;;19.62;38.55
20077;BME280;12348;42.710;23.378;2022-09-20T12:18:29;95143.81;;;20.03;37.89
20077;BME280;12348;42.710;23.378;2022-09-20T12:21:08;95138.56;;;20.26;37.86
20077;BME280;12348;42.710;23.378;2022-09-20T12:24:14;95128.13;;;20.95;36.49
20077;BME280;12348;42.710;23.378;2022-09-20T12:26:45;95126.13;;;20.28;37.15
20077;BME280;12348;42.710;23.378;2022-09-20T12:38:31;95133.75;;;18.74;40.23
20077;BME280;12348;42.710;23.378;2022-09-20T12:41:02;95128.56;;;18.23;41.76
20077;BME280;12348;42.710;23.378;2022-09-20T12:43:33;95135.50;;;18.33;41.04
20077;BME280;12348;42.710;23.378;2022-09-20T12:46:02;95128.81;;;18.42;40.66
20077;BME280;12348;42.710;23.378;2022-09-20T12:48:34;95126.31;;;17.92;41.68
20077;BME280;12348;42.710;23.378;2022-09-20T12:51:03;95138.44;;;17.61;42.61
20077;BME280;12348;42.710;23.378;2022-09-20T12:54:01;95134.06;;;17.90;42.95
20077;BME280;12348;42.710;23.378;2022-09-20T12:56:32;95126.78;;;17.73;42.38
20077;BME280;12348;42.710;23.378;2022-09-20T12:59:01;95131.19;;;17.65;42.88
20077;BME280;12348;42.710;23.378;2022-09-20T13:01:33;95119.31;;;17.70;42.25
20077;BME280;12348;42.710;23.378;2022-09-20T13:07:38;95124.50;;;17.63;41.42
20077;BME280;12348;42.710;23.378;2022-09-20T13:10:19;95114.19;;;17.68;40.89
20077;BME280;12348;42.710;23.378;2022-09-20T13:12:51;95123.94;;;17.69;41.38
20077;BME280;12348;42.710;23.378;2022-09-20T13:15:20;95114.84;;;17.65;41.97
20077;BME280;12348;42.710;23.378;2022-09-20T13:17:50;95121.84;;;17.54;42.18
20077;BME280;12348;42.710;23.378;2022-09-20T13:20:21;95128.38;;;17.41;42.25
20077;BME280;12348;42.710;23.378;2022-09-20T13:22:49;95118.53;;;17.28;42.59
20077;BME280;12348;42.710;23.378;2022-09-20T13:25:20;95122.13;;;17.19;42.12
20077;BME280;12348;42.710;23.378;2022-09-20T13:27:50;95124.78;;;17.28;42.15
20077;BME280;12348;42.710;23.378;2022-09-20T13:30:21;95128.25;;;17.16;42.25
20077;BME280;12348;42.710;23.378;2022-09-20T13:32:49;95129.66;;;17.23;42.64
20077;BME280;12348;42.710;23.378;2022-09-20T13:35:18;95121.69;;;16.88;43.04
20077;BME280;12348;42.710;23.378;2022-09-20T13:37:50;95117.00;;;16.97;42.49
20077;BME280;12348;42.710;23.378;2022-09-20T13:40:21;95118.34;;;17.12;42.21
20077;BME280;12348;42.710;23.378;2022-09-20T13:42:50;95112.31;;;17.27;41.36
20077;BME280;12348;42.710;23.378;2022-09-20T13:45:18;95125.44;;;17.25;41.36
20077;BME280;12348;42.710;23.378;2022-09-20T13:47:48;95117.50;;;16.99;41.02
20077;BME280;12348;42.710;23.378;2022-09-20T13:50:20;95109.19;;;16.95;41.54
20077;BME280;12348;42.710;23.378;2022-09-20T13:52:49;95117.22;;;16.92;42.47
20077;BME280;12348;42.710;23.378;2022-09-20T13:55:31;95116.53;;;16.95;42.56
20077;BME280;12348;42.710;23.378;2022-09-20T13:58:00;95115.81;;;16.86;44.38
20077;BME280;12348;42.710;23.378;2022-09-20T14:00:29;95101.94;;;16.79;43.31
20077;BME280;12348;42.710;23.378;2022-09-20T14:02:57;95110.09;;;16.79;43.68
20077;BME280;12348;42.710;23.378;2022-09-20T14:05:27;95111.00;;;16.53;44.96
20077;BME280;12348;42.710;23.378;2022-09-20T14:07:55;95109.50;;;16.64;45.11
20077;BME280;12348;42.710;23.378;2022-09-20T14:10:27;95101.44;;;16.77;45.34
20077;BME280;12348;42.710;23.378;2022-09-20T14:12:56;95105.44;;;16.79;45.52
20077;BME280;12348;42.710;23.378;2022-09-20T14:15:25;95102.91;;;16.65;46.24